Time;durP1;ratioP1;P1;durP2;ratioP2;P2;SDS_P1;SDS_P2;PMS_P1;PMS_P2;Temp;Humidity;BMP_temperature;BMP_pressure;BME280_temperature;BME280_humidity;BME280_pressure;Samples;Min_cycle;Max_cycle;Signal;HPM_P1;HPM_P2
2022/05/27 00:02:15;;;;;;;7.18;2.90;;;14.40;99.90;;;;;;5091957;28;20050;-70
2022/05/27 00:04:41;;;;;;;6.68;2.70;;;14.30;99.90;;;;;;5086630;28;20093;-69
2022/05/27 00:07:07;;;;;;;7.40;3.15;;;14.30;99.90;;;;;;5090514;28;20681;-69
2022/05/27 00:09:32;;;;;;;7.57;2.72;;;14.30;99.90;;;;;;5090763;28;20079;-68
2022/05/27 00:11:59;;;;;;;6.35;2.80;;;14.20;99.90;;;;;;5094917;28;20067;-68
2022/05/27 00:14:25;;;;;;;7.30;2.70;;;14.30;99.90;;;;;;5091827;28;20058;-70
2022/05/27 00:16:50;;;;;;;5.22;2.88;;;14.30;99.90;;;;;;5092147;28;20622;-69
2022/05/27 00:19:16;;;;;;;5.40;3.35;;;14.30;99.90;;;;;;5096251;28;20142;-70
2022/05/27 00:21:42;;;;;;;5.57;2.80;;;14.30;99.90;;;;;;5104557;28;20032;-69
2022/05/27 00:24:08;;;;;;;6.07;3.08;;;14.30;99.90;;;;;;5087488;28;20139;-69
2022/05/27 00:26:33;;;;;;;7.57;2.92;;;14.20;99.90;;;;;;5088483;28;20043;-70
2022/05/27 00:29:01;;;;;;;6.50;3.00;;;14.30;99.90;;;;;;5099202;28;20046;-69
2022/05/27 00:31:26;;;;;;;6.20;3.40;;;14.30;99.90;;;;;;5102201;28;20096;-69
2022/05/27 00:33:52;;;;;;;6.97;3.40;;;14.30;99.90;;;;;;5090389;28;20039;-69
2022/05/27 00:36:18;;;;;;;6.00;3.00;;;14.20;99.90;;;;;;5099595;28;20293;-70
2022/05/27 00:38:44;;;;;;;7.30;2.95;;;14.20;99.90;;;;;;5090368;28;20467;-70
2022/05/27 00:41:11;;;;;;;6.65;3.22;;;14.30;99.90;;;;;;5090767;28;22134;-69
2022/05/27 00:43:38;;;;;;;8.95;3.75;;;14.30;99.90;;;;;;5096422;28;20512;-70
2022/05/27 00:46:12;;;;;;;;;;;14.20;99.90;;;;;;5093206;28;20402;-69
2022/05/27 00:48:39;;;;;;;7.35;3.05;;;14.20;99.90;;;;;;5076181;28;19978;-71
2022/05/27 00:51:12;;;;;;;4.82;3.17;;;14.20;99.90;;;;;;5105330;28;20077;-69
2022/05/27 00:53:48;;;;;;;7.03;3.47;;;14.20;99.90;;;;;;5089164;28;20082;-69
2022/05/27 00:56:16;;;;;;;7.32;3.40;;;14.10;99.90;;;;;;5089414;28;20063;-71
2022/05/27 00:58:58;;;;;;;5.35;3.33;;;14.10;99.90;;;;;;5083346;28;20054;-69
2022/05/27 01:01:26;;;;;;;5.53;3.00;;;14.10;99.90;;;;;;5100568;28;20512;-70
2022/05/27 01:03:54;;;;;;;5.07;3.05;;;14.10;99.90;;;;;;5086504;28;20051;-71
2022/05/27 01:06:19;;;;;;;6.22;2.80;;;14.10;99.90;;;;;;5101241;28;20593;-68
2022/05/27 01:08:46;;;;;;;5.10;2.65;;;14.10;99.90;;;;;;5105941;28;20051;-69
2022/05/27 01:11:20;;;;;;;4.57;2.50;;;14.10;99.90;;;;;;5097004;28;20040;-69
2022/05/27 01:13:49;;;;;;;6.07;3.13;;;14.10;99.90;;;;;;5084517;28;22074;-69
2022/05/27 01:16:36;;;;;;;5.63;2.78;;;14.10;99.90;;;;;;5088628;28;20076;-70
2022/05/27 01:22:46;;;;;;;6.47;3.20;;;14.10;99.90;;;;;;5103190;28;20044;-70
2022/05/27 01:25:33;;;;;;;7.07;3.70;;;14.10;99.90;;;;;;5089698;28;20040;-70
2022/05/27 01:28:33;;;;;;;6.45;3.25;;;14.10;99.90;;;;;;5087777;28;20048;-69
2022/05/27 01:31:33;;;;;;;6.10;3.40;;;14.00;99.90;;;;;;5085965;28;20684;-70
2022/05/27 01:34:23;;;;;;;8.48;3.70;;;14.10;99.90;;;;;;5075253;28;20093;-69
2022/05/27 01:37:12;;;;;;;6.97;3.60;;;14.00;99.90;;;;;;5088389;28;21939;-69
2022/05/27 01:39:56;;;;;;;7.30;3.90;;;14.10;99.90;;;;;;5085880;28;20052;-69
2022/05/27 01:42:37;;;;;;;8.05;4.10;;;14.10;99.90;;;;;;5076540;28;20067;-69
2022/05/27 01:45:18;;;;;;;8.35;4.10;;;14.00;99.90;;;;;;5075624;28;20450;-69
2022/05/27 01:47:54;;;;;;;9.35;4.68;;;14.00;99.90;;;;;;5097288;28;20051;-70
2022/05/27 01:50:46;;;;;;;9.20;4.75;;;14.00;99.90;;;;;;5084422;28;20039;-69
2022/05/27 01:53:30;;;;;;;7.45;4.43;;;14.10;99.90;;;;;;5077067;28;20056;-69
2022/05/27 01:56:20;;;;;;;8.50;4.63;;;14.10;99.90;;;;;;5085798;28;20060;-69
2022/05/27 01:59:13;;;;;;;7.80;4.78;;;14.10;99.90;;;;;;5081968;28;20044;-69
2022/05/27 02:01:44;;;;;;;10.38;5.38;;;14.10;99.90;;;;;;5086653;28;20576;-69
2022/05/27 02:04:22;;;;;;;13.32;5.03;;;14.00;99.90;;;;;;5088884;28;20177;-68
2022/05/27 02:06:57;;;;;;;11.60;6.15;;;14.00;99.90;;;;;;5094255;28;20036;-71
2022/05/27 02:09:29;;;;;;;11.90;5.78;;;14.00;99.90;;;;;;5087048;28;20045;-69
2022/05/27 02:12:05;;;;;;;12.88;5.82;;;14.00;99.90;;;;;;5084427;28;20055;-69
2022/05/27 02:14:44;;;;;;;13.52;5.72;;;14.00;99.90;;;;;;5088171;28;20047;-69
2022/05/27 02:17:15;;;;;;;14.02;5.85;;;14.00;99.90;;;;;;5091100;28;20084;-69
2022/05/27 02:19:55;;;;;;;10.02;5.68;;;13.90;99.90;;;;;;5086980;28;20097;-68
2022/05/27 02:22:32;;;;;;;13.60;6.05;;;13.90;99.90;;;;;;5092346;28;20060;-70
2022/05/27 02:25:27;;;;;;;15.60;5.70;;;13.90;99.90;;;;;;5092022;28;20090;-70
2022/05/27 02:28:04;;;;;;;12.13;5.60;;;13.90;99.90;;;;;;5095009;28;20055;-69
2022/05/27 02:30:35;;;;;;;10.30;5.95;;;13.80;99.90;;;;;;5088810;28;20453;-70
2022/05/27 02:36:16;;;;;;;11.68;6.13;;;13.80;99.90;;;;;;5085413;28;20044;-69
2022/05/27 02:38:42;;;;;;;11.55;6.05;;;13.80;99.90;;;;;;5087665;28;20051;-69
2022/05/27 02:41:31;;;;;;;13.20;6.30;;;13.70;99.90;;;;;;5086036;28;20046;-69
2022/05/27 02:44:23;;;;;;;12.75;6.45;;;13.80;99.90;;;;;;5081908;28;20047;-69
2022/05/27 02:47:05;;;;;;;11.55;5.82;;;13.70;99.90;;;;;;5086724;28;20078;-69
2022/05/27 02:49:45;;;;;;;13.82;5.97;;;13.70;99.90;;;;;;5085082;28;20040;-69
2022/05/27 02:52:26;;;;;;;12.93;6.57;;;13.70;99.90;;;;;;5093300;28;20054;-69
2022/05/27 02:55:10;;;;;;;13.38;6.28;;;13.70;99.90;;;;;;5109314;28;20089;-69
2022/05/27 02:57:43;;;;;;;11.68;5.97;;;13.60;99.90;;;;;;5102586;28;20089;-69
2022/05/27 03:00:15;;;;;;;16.17;6.28;;;13.70;99.90;;;;;;5103373;28;20092;-68
2022/05/27 03:02:41;;;;;;;15.00;6.43;;;13.60;99.90;;;;;;5106006;28;20039;-68
2022/05/27 03:05:08;;;;;;;15.55;6.05;;;13.60;99.90;;;;;;5104395;27;20036;-69
2022/05/27 03:07:57;;;;;;;14.63;5.57;;;13.60;99.90;;;;;;5093005;28;20562;-69
2022/05/27 03:11:08;;;;;;;14.20;5.70;;;13.60;99.90;;;;;;5090408;28;20313;-70
2022/05/27 03:13:57;;;;;;;16.20;5.18;;;13.60;99.90;;;;;;5087151;28;20052;-69
2022/05/27 03:16:31;;;;;;;16.10;5.68;;;13.50;99.90;;;;;;5074594;28;20040;-69
2022/05/27 03:19:18;;;;;;;17.88;6.70;;;13.60;99.90;;;;;;5088114;28;20045;-69
2022/05/27 03:22:03;;;;;;;18.48;5.93;;;13.50;99.90;;;;;;5075495;28;20066;-69
2022/05/27 03:24:40;;;;;;;15.18;5.57;;;13.50;99.90;;;;;;5090107;28;20562;-69
2022/05/27 03:27:25;;;;;;;;;;;13.50;99.90;;;;;;5086040;28;20513;-69
2022/05/27 03:30:12;;;;;;;15.13;5.88;;;13.50;99.90;;;;;;5088341;28;19927;-69
2022/05/27 03:32:58;;;;;;;17.05;5.72;;;13.50;99.90;;;;;;5094987;28;20055;-69
2022/05/27 03:35:38;;;;;;;18.83;6.05;;;13.50;99.90;;;;;;5087721;28;20078;-69
2022/05/27 03:38:11;;;;;;;14.85;5.75;;;13.50;99.90;;;;;;5084397;28;20075;-69
2022/05/27 03:40:52;;;;;;;17.35;6.10;;;13.50;99.90;;;;;;5084213;28;20139;-69
2022/05/27 03:43:18;;;;;;;14.60;5.53;;;13.50;99.90;;;;;;5084503;28;20062;-68
2022/05/27 03:45:50;;;;;;;15.27;5.28;;;13.50;99.90;;;;;;5087391;28;20036;-69
2022/05/27 03:48:18;;;;;;;16.25;5.55;;;13.50;99.90;;;;;;5086134;28;20040;-69
2022/05/27 03:50:45;;;;;;;;;;;13.50;99.90;;;;;;5084304;28;20044;-70
2022/05/27 03:53:11;;;;;;;;;;;13.50;99.90;;;;;;5088304;28;20006;-69
2022/05/27 03:55:41;;;;;;;17.35;5.43;;;13.50;99.90;;;;;;5086118;28;20010;-68
2022/05/27 03:58:07;;;;;;;15.27;5.15;;;13.50;99.90;;;;;;5091345;28;20076;-70
2022/05/27 04:00:32;;;;;;;13.32;4.80;;;13.50;99.90;;;;;;5091191;28;20131;-69
2022/05/27 04:02:58;;;;;;;17.88;5.10;;;13.50;99.90;;;;;;5085924;28;20093;-69
2022/05/27 04:05:24;;;;;;;20.70;5.25;;;13.50;99.90;;;;;;5091408;28;20047;-69
2022/05/27 04:07:50;;;;;;;17.33;5.78;;;13.50;99.90;;;;;;5088420;28;20059;-70
2022/05/27 04:10:15;;;;;;;20.00;5.72;;;13.50;99.90;;;;;;5087702;28;20055;-70
2022/05/27 04:12:41;;;;;;;14.73;4.80;;;13.50;99.90;;;;;;5096367;28;20044;-69
2022/05/27 04:15:07;;;;;;;16.27;5.55;;;13.60;99.90;;;;;;5109333;28;20482;-69
2022/05/27 04:17:33;;;;;;;15.60;4.60;;;13.50;99.90;;;;;;5097357;28;20589;-69
2022/05/27 04:20:01;;;;;;;17.75;5.05;;;13.50;99.90;;;;;;5109165;28;20040;-69
2022/05/27 04:22:27;;;;;;;20.45;5.20;;;13.50;99.90;;;;;;5109449;28;20100;-69
2022/05/27 04:24:53;;;;;;;17.90;4.65;;;13.50;99.90;;;;;;5108640;28;20052;-69
2022/05/27 04:27:20;;;;;;;17.80;4.90;;;13.50;99.90;;;;;;5098284;28;20040;-70
2022/05/27 04:29:48;;;;;;;17.15;5.15;;;13.50;99.90;;;;;;5088932;28;20052;-70
2022/05/27 04:32:14;;;;;;;14.38;4.55;;;13.50;99.90;;;;;;5085566;28;20048;-70
2022/05/27 04:34:40;;;;;;;19.55;4.70;;;13.60;99.90;;;;;;5094957;28;20039;-69
2022/05/27 04:37:07;;;;;;;19.42;4.70;;;13.60;99.90;;;;;;5091469;28;20123;-70
2022/05/27 04:39:33;;;;;;;18.33;5.23;;;13.60;99.90;;;;;;5088098;28;20071;-69
2022/05/27 04:42:00;;;;;;;17.75;4.78;;;13.60;99.90;;;;;;5091802;28;20044;-70
2022/05/27 04:44:26;;;;;;;16.70;4.50;;;13.60;99.90;;;;;;5090712;28;20086;-70
2022/05/27 04:46:51;;;;;;;17.25;5.40;;;13.70;99.90;;;;;;5092075;28;20317;-69
2022/05/27 04:52:02;;;;;;;14.90;4.72;;;13.70;99.90;;;;;;5111628;28;20048;-70
2022/05/27 04:54:28;;;;;;;21.98;5.22;;;13.70;99.90;;;;;;5107926;28;20036;-70
2022/05/27 04:56:55;;;;;;;14.02;5.15;;;13.80;99.90;;;;;;5092033;28;20486;-70
2022/05/27 04:59:21;;;;;;;21.10;5.10;;;13.70;99.90;;;;;;5103248;28;20088;-70
2022/05/27 05:01:47;;;;;;;14.15;4.97;;;13.70;99.90;;;;;;5112550;28;20510;-69
2022/05/27 05:04:12;;;;;;;17.45;4.57;;;13.70;99.90;;;;;;5107979;28;20119;-69
2022/05/27 05:06:38;;;;;;;17.17;4.85;;;13.70;99.90;;;;;;5098216;28;20054;-70
2022/05/27 05:09:04;;;;;;;20.90;4.68;;;13.70;99.90;;;;;;5112068;28;20126;-70
2022/05/27 05:11:30;;;;;;;16.98;4.65;;;13.70;99.90;;;;;;5109510;28;20044;-70
2022/05/27 05:13:55;;;;;;;14.07;4.22;;;13.70;99.90;;;;;;5106932;28;20048;-70
2022/05/27 05:16:21;;;;;;;20.13;5.10;;;13.70;99.90;;;;;;5100040;28;20048;-70
2022/05/27 05:18:47;;;;;;;15.98;4.07;;;13.70;99.90;;;;;;5091810;28;20040;-69
2022/05/27 05:21:15;;;;;;;15.43;4.43;;;13.70;99.90;;;;;;5089571;28;20032;-70
2022/05/27 05:23:41;;;;;;;16.48;4.22;;;13.70;99.90;;;;;;5101160;28;20066;-70
2022/05/27 05:26:06;;;;;;;17.70;4.50;;;13.60;99.90;;;;;;5108127;28;20040;-69
2022/05/27 05:28:32;;;;;;;19.15;5.03;;;13.60;99.90;;;;;;5109582;28;20085;-70
2022/05/27 05:30:58;;;;;;;19.80;5.10;;;13.60;99.90;;;;;;5106048;28;20434;-70
2022/05/27 05:33:23;;;;;;;16.90;4.40;;;13.60;99.90;;;;;;5104381;28;20044;-70
2022/05/27 05:35:49;;;;;;;15.60;4.68;;;13.70;99.90;;;;;;5105425;28;20040;-70
2022/05/27 05:38:15;;;;;;;13.73;4.50;;;13.80;99.90;;;;;;5102378;28;20488;-70
2022/05/27 05:40:41;;;;;;;18.23;4.50;;;13.90;99.90;;;;;;5090569;28;20036;-69
2022/05/27 05:43:06;;;;;;;16.38;4.18;;;13.90;99.90;;;;;;5102213;28;20050;-70
2022/05/27 05:45:32;;;;;;;16.92;3.90;;;14.00;99.90;;;;;;5109678;28;20043;-70
2022/05/27 05:47:58;;;;;;;16.23;4.28;;;14.00;99.90;;;;;;5093209;28;20036;-69
2022/05/27 05:50:24;;;;;;;17.27;5.00;;;14.10;99.90;;;;;;5077151;28;20047;-70
2022/05/27 05:52:50;;;;;;;12.63;4.55;;;14.20;99.90;;;;;;5101639;28;20042;-70
2022/05/27 05:55:18;;;;;;;15.40;4.60;;;14.20;99.90;;;;;;5091631;28;20056;-70
2022/05/27 05:57:46;;;;;;;17.65;4.13;;;14.20;99.90;;;;;;5096925;28;20051;-69
2022/05/27 06:00:19;;;;;;;16.52;4.70;;;14.30;99.90;;;;;;5097284;28;20062;-69
2022/05/27 06:02:45;;;;;;;15.00;3.72;;;14.40;99.90;;;;;;5105733;28;20067;-70
2022/05/27 06:05:11;;;;;;;13.30;3.85;;;14.30;99.90;;;;;;5099839;28;20087;-69
2022/05/27 06:07:36;;;;;;;15.02;3.95;;;14.30;99.90;;;;;;5098852;28;20856;-69
2022/05/27 06:10:03;;;;;;;13.82;3.80;;;14.40;99.90;;;;;;5107003;28;20043;-68
2022/05/27 06:12:33;;;;;;;11.93;3.17;;;14.30;99.90;;;;;;5108335;28;20051;-70
2022/05/27 06:15:00;;;;;;;14.40;3.20;;;14.40;99.90;;;;;;5098108;28;20044;-69
2022/05/27 06:17:27;;;;;;;15.98;3.38;;;14.30;99.90;;;;;;5091160;28;20046;-69
2022/05/27 06:19:52;;;;;;;16.30;3.38;;;14.30;99.90;;;;;;5107951;28;20048;-69
2022/05/27 06:22:18;;;;;;;17.05;4.53;;;14.40;99.90;;;;;;5090006;28;20456;-69
2022/05/27 06:24:44;;;;;;;13.15;3.90;;;14.50;99.90;;;;;;5089307;28;20040;-70
2022/05/27 06:27:10;;;;;;;15.15;3.03;;;14.50;99.90;;;;;;5105714;28;20058;-69
2022/05/27 06:35:05;;;;;;;11.35;2.95;;;14.50;99.90;;;;;;5109694;28;20207;-68
2022/05/27 06:37:30;;;;;;;11.75;3.17;;;14.50;99.90;;;;;;5108969;28;20036;-71
2022/05/27 06:39:57;;;;;;;15.35;3.28;;;14.50;99.90;;;;;;5110095;28;20168;-70
2022/05/27 06:42:23;;;;;;;13.07;3.67;;;14.60;99.90;;;;;;5089850;27;20040;-70
2022/05/27 06:44:48;;;;;;;13.50;3.17;;;14.70;99.90;;;;;;5088120;28;20051;-68
2022/05/27 06:47:14;;;;;;;14.32;3.38;;;14.80;99.90;;;;;;5089901;28;20646;-69
2022/05/27 06:49:43;;;;;;;13.77;3.45;;;14.90;99.90;;;;;;5102873;28;20498;-70
2022/05/27 06:52:10;;;;;;;16.20;3.10;;;15.00;99.90;;;;;;5093167;28;20036;-69
2022/05/27 06:54:35;;;;;;;18.77;3.63;;;14.90;99.90;;;;;;5089368;28;20138;-69
2022/05/27 06:57:03;;;;;;;14.23;3.20;;;14.90;99.90;;;;;;5089178;28;20135;-70
2022/05/27 06:59:29;;;;;;;15.98;3.50;;;14.80;99.90;;;;;;5084090;28;20123;-69
2022/05/27 07:01:56;;;;;;;17.98;3.40;;;14.90;99.90;;;;;;5101349;28;20146;-69
2022/05/27 07:04:21;;;;;;;20.05;3.78;;;15.00;99.90;;;;;;5087466;28;20052;-69
2022/05/27 07:06:48;;;;;;;14.70;3.35;;;14.90;99.90;;;;;;5095334;28;20036;-69
2022/05/27 07:09:17;;;;;;;14.05;3.90;;;14.80;99.90;;;;;;5087883;28;20450;-70
2022/05/27 07:11:44;;;;;;;15.95;3.40;;;14.70;99.90;;;;;;5088009;28;20047;-70
2022/05/27 07:14:12;;;;;;;15.30;3.20;;;14.60;99.90;;;;;;5094441;28;20040;-70
2022/05/27 07:16:38;;;;;;;15.80;3.35;;;14.60;99.90;;;;;;5087851;28;20166;-70
2022/05/27 07:19:04;;;;;;;14.43;3.25;;;14.70;99.90;;;;;;5091025;28;20079;-70
2022/05/27 07:21:30;;;;;;;14.35;3.55;;;14.70;99.90;;;;;;5101671;28;20058;-70
2022/05/27 07:23:56;;;;;;;13.43;3.33;;;14.80;99.90;;;;;;5092121;28;20490;-69
2022/05/27 07:26:23;;;;;;;10.93;3.28;;;14.90;99.90;;;;;;5092874;28;20081;-72
2022/05/27 07:28:49;;;;;;;12.88;2.95;;;15.00;99.90;;;;;;5097912;28;20057;-71
2022/05/27 07:31:17;;;;;;;17.23;3.30;;;15.10;99.90;;;;;;5087112;28;20539;-71
2022/05/27 07:33:44;;;;;;;13.85;3.50;;;15.10;99.90;;;;;;5090626;28;20044;-70
2022/05/27 07:36:10;;;;;;;17.83;3.65;;;15.10;99.90;;;;;;5105543;28;20061;-71
2022/05/27 07:38:36;;;;;;;14.02;3.25;;;15.20;99.90;;;;;;5097923;28;20044;-72
2022/05/27 07:41:01;;;;;;;14.90;3.20;;;15.30;99.90;;;;;;5090420;28;20100;-73
2022/05/27 07:43:27;;;;;;;13.48;3.47;;;15.40;99.90;;;;;;5097101;28;20028;-74
2022/05/27 07:45:53;;;;;;;13.52;3.35;;;15.40;99.90;;;;;;5082002;28;20410;-73
2022/05/27 07:48:19;;;;;;;10.65;3.60;;;15.50;99.90;;;;;;5089776;28;20512;-73
2022/05/27 07:50:45;;;;;;;14.40;3.67;;;15.50;99.90;;;;;;5085335;28;20048;-72
2022/05/27 07:53:11;;;;;;;14.82;3.30;;;15.50;99.90;;;;;;5092599;28;20169;-72
2022/05/27 07:55:37;;;;;;;14.98;3.40;;;15.50;99.90;;;;;;5093886;28;20085;-71
2022/05/27 07:58:03;;;;;;;13.13;3.30;;;15.40;99.90;;;;;;5104853;28;20048;-69
2022/05/27 08:00:32;;;;;;;14.65;3.17;;;15.30;99.90;;;;;;5097107;28;20037;-69
2022/05/27 08:02:57;;;;;;;16.20;3.33;;;15.40;99.90;;;;;;5091520;28;20040;-69
2022/05/27 08:05:26;;;;;;;10.40;2.53;;;15.40;99.90;;;;;;5100554;28;20535;-70
2022/05/27 08:07:54;;;;;;;10.85;2.80;;;15.40;99.90;;;;;;5084418;28;20164;-70
2022/05/27 08:10:22;;;;;;;14.70;3.45;;;15.40;99.90;;;;;;5097105;28;20099;-71
2022/05/27 08:12:48;;;;;;;13.85;3.63;;;15.30;99.90;;;;;;5087622;28;20956;-69
2022/05/27 08:15:14;;;;;;;14.63;3.08;;;15.20;99.90;;;;;;5089615;28;20127;-71
2022/05/27 08:17:41;;;;;;;11.77;2.75;;;15.10;99.90;;;;;;5092286;28;20043;-70
2022/05/27 08:20:09;;;;;;;12.98;2.97;;;15.30;99.90;;;;;;5089727;28;20482;-69
2022/05/27 08:22:35;;;;;;;16.77;3.63;;;15.40;99.90;;;;;;5100918;28;20437;-70
2022/05/27 08:25:01;;;;;;;12.57;3.42;;;15.60;99.90;;;;;;5086265;28;20036;-69
2022/05/27 08:27:27;;;;;;;12.45;2.95;;;15.70;99.90;;;;;;5093425;28;20051;-70
2022/05/27 08:29:52;;;;;;;9.27;2.60;;;15.80;99.90;;;;;;5102750;28;20464;-71
2022/05/27 08:32:18;;;;;;;16.25;3.60;;;15.90;99.90;;;;;;5095505;28;20397;-71
2022/05/27 08:40:31;;;;;;;16.60;3.30;;;15.80;99.90;;;;;;5094205;28;20101;-72
2022/05/27 08:43:01;;;;;;;14.63;3.13;;;15.90;99.90;;;;;;5102979;28;20043;-71
2022/05/27 08:45:32;;;;;;;15.38;3.28;;;16.00;99.90;;;;;;5101661;28;20088;-80
2022/05/27 08:48:03;;;;;;;12.45;2.83;;;16.10;99.90;;;;;;5096365;28;20048;-70
2022/05/27 08:50:51;;;;;;;13.23;3.08;;;16.00;99.90;;;;;;5096178;28;20486;-71
2022/05/27 08:53:32;;;;;;;13.25;2.88;;;15.80;99.70;;;;;;5077721;28;20051;-71
2022/05/27 09:01:51;;;;;;;8.32;2.17;;;15.60;99.90;;;;;;5111915;28;20056;-71
2022/05/27 09:04:32;;;;;;;9.18;2.30;;;15.70;99.40;;;;;;5101348;28;20898;-70
2022/05/27 09:07:06;;;;;;;15.00;2.97;;;15.70;99.20;;;;;;5107138;28;20070;-69
2022/05/27 09:09:32;;;;;;;13.05;3.20;;;15.80;98.90;;;;;;5095790;28;20054;-70
2022/05/27 09:12:29;;;;;;;9.75;2.30;;;15.90;99.70;;;;;;5105504;28;20040;-69
2022/05/27 09:14:57;;;;;;;11.07;2.88;;;15.90;96.50;;;;;;5089450;28;20454;-69
2022/05/27 09:17:33;;;;;;;12.52;2.78;;;16.00;98.50;;;;;;5091549;28;20044;-70
2022/05/27 09:20:12;;;;;;;11.38;2.72;;;16.00;99.90;;;;;;5089606;28;20043;-73
2022/05/27 09:23:04;;;;;;;14.05;2.92;;;16.20;99.10;;;;;;5090840;28;20467;-68
2022/05/27 09:25:59;;;;;;;12.85;2.45;;;16.20;99.20;;;;;;5083436;28;20062;-70
2022/05/27 09:28:57;;;;;;;10.93;2.78;;;16.20;98.90;;;;;;5074271;28;20561;-70
2022/05/27 09:31:34;;;;;;;11.60;2.83;;;16.20;95.70;;;;;;5100318;28;20551;-69
2022/05/27 09:34:00;;;;;;;14.20;3.05;;;16.20;98.30;;;;;;5104222;27;20051;-70
2022/05/27 09:36:34;;;;;;;12.68;2.83;;;16.20;99.70;;;;;;5092565;28;20036;-70
2022/05/27 09:39:03;;;;;;;10.48;2.22;;;16.10;96.50;;;;;;5108225;27;20046;-71
2022/05/27 09:41:49;;;;;;;12.60;2.45;;;16.10;99.30;;;;;;5102106;28;20718;-70
2022/05/27 09:44:33;;;;;;;14.23;2.65;;;16.10;92.40;;;;;;5090205;28;20126;-68
2022/05/27 09:47:00;;;;;;;9.68;2.67;;;16.20;98.80;;;;;;5100812;28;20416;-73
2022/05/27 09:49:26;;;;;;;10.02;2.10;;;16.30;99.00;;;;;;5104749;28;20047;-74
2022/05/27 09:51:52;;;;;;;12.13;2.75;;;16.40;96.80;;;;;;5102049;28;20417;-73
2022/05/27 09:54:33;;;;;;;12.15;2.47;;;16.40;96.00;;;;;;5091173;28;20483;-71
2022/05/27 09:57:16;;;;;;;11.93;2.75;;;16.40;97.10;;;;;;5106557;28;20059;-73
2022/05/27 09:59:48;;;;;;;17.42;2.53;;;16.50;97.60;;;;;;5107517;28;20449;-71
2022/05/27 10:02:28;;;;;;;9.82;2.25;;;16.40;98.20;;;;;;5105853;28;20066;-72
2022/05/27 10:05:38;;;;;;;10.60;2.30;;;16.40;94.10;;;;;;5072018;28;20082;-70
2022/05/27 10:08:03;;;;;;;11.38;2.53;;;16.40;96.00;;;;;;5060208;28;20054;-71
2022/05/27 10:10:34;;;;;;;10.90;2.60;;;16.30;97.20;;;;;;5103021;28;20047;-71
2022/05/27 10:13:34;;;;;;;13.85;2.35;;;16.30;97.50;;;;;;5093670;28;20057;-69
2022/05/27 10:16:08;;;;;;;10.20;2.40;;;16.20;99.60;;;;;;5052818;28;20064;-70
2022/05/27 10:18:34;;;;;;;8.27;1.80;;;16.30;99.80;;;;;;5089736;28;20039;-70
2022/05/27 10:21:18;;;;;;;12.20;2.45;;;16.20;98.30;;;;;;5089499;28;20044;-68
2022/05/27 10:23:48;;;;;;;11.20;2.85;;;16.20;96.00;;;;;;5085135;28;20429;-70
2022/05/27 10:26:27;;;;;;;11.35;2.42;;;16.30;97.70;;;;;;5094287;28;20048;-72
2022/05/27 10:29:02;;;;;;;10.00;2.45;;;16.40;98.00;;;;;;5092247;28;20087;-70
2022/05/27 10:31:28;;;;;;;8.80;1.95;;;16.40;95.60;;;;;;5097780;28;20478;-70
2022/05/27 10:33:54;;;;;;;11.43;2.22;;;16.40;95.70;;;;;;5104868;28;20051;-69
2022/05/27 10:36:47;;;;;;;10.88;2.70;;;16.40;95.70;;;;;;5100375;28;20043;-70
2022/05/27 10:39:22;;;;;;;9.68;2.33;;;16.50;96.60;;;;;;5096616;28;20432;-69
2022/05/27 10:42:18;;;;;;;9.50;2.38;;;16.50;98.20;;;;;;5087979;28;20047;-70
2022/05/27 10:44:59;;;;;;;8.83;2.30;;;16.60;94.80;;;;;;5068870;28;20055;-70
2022/05/27 10:47:53;;;;;;;9.48;2.70;;;16.60;94.10;;;;;;5088990;28;20051;-71
2022/05/27 10:50:36;;;;;;;13.93;3.15;;;16.60;94.10;;;;;;5095986;28;20047;-75
2022/05/27 10:53:08;;;;;;;13.18;2.42;;;16.50;94.10;;;;;;5092613;28;20035;-69
2022/05/27 10:55:50;;;;;;;8.82;2.15;;;16.50;95.80;;;;;;5098145;28;20059;-69
2022/05/27 11:04:48;;;;;;;10.05;2.30;;;16.40;98.30;;;;;;5106380;28;20059;-69
2022/05/27 11:07:31;;;;;;;10.07;2.88;;;16.50;96.20;;;;;;5103333;28;20478;-70
2022/05/27 11:10:18;;;;;;;11.60;2.50;;;16.70;97.10;;;;;;5104968;28;20075;-70
2022/05/27 11:16:04;;;;;;;10.20;2.33;;;17.00;95.20;;;;;;5098664;28;20044;-68
2022/05/27 11:18:59;;;;;;;11.50;2.37;;;16.90;93.90;;;;;;5089024;28;20044;-70
2022/05/27 11:22:31;;;;;;;10.65;2.25;;;16.70;85.60;;;;;;5089111;28;20795;-69
2022/05/27 11:25:34;;;;;;;9.63;2.85;;;16.50;93.30;;;;;;5037762;28;20089;-70
2022/05/27 11:28:37;;;;;;;10.55;2.70;;;16.50;97.50;;;;;;5056104;28;20047;-71
2022/05/27 11:31:12;;;;;;;12.38;2.75;;;16.70;96.40;;;;;;5107635;28;20040;-70
2022/05/27 11:33:53;;;;;;;10.45;3.05;;;16.90;95.50;;;;;;5089748;28;20044;-72
2022/05/27 11:37:06;;;;;;;11.70;2.85;;;17.00;91.10;;;;;;5090326;28;20096;-70
2022/05/27 11:39:55;;;;;;;10.82;2.45;;;17.10;96.60;;;;;;5057436;28;20139;-71
2022/05/27 11:42:47;;;;;;;10.43;2.47;;;17.20;93.20;;;;;;5106049;28;20123;-70
2022/05/27 11:45:22;;;;;;;10.38;2.50;;;17.30;90.80;;;;;;5091230;28;20048;-70
2022/05/27 11:48:13;;;;;;;7.72;2.15;;;17.20;93.00;;;;;;5101611;28;20068;-70
2022/05/27 11:50:57;;;;;;;14.00;2.92;;;17.20;93.60;;;;;;5096253;28;20036;-69
2022/05/27 11:54:08;;;;;;;9.10;2.38;;;17.30;96.40;;;;;;5088345;28;20078;-72
2022/05/27 11:56:39;;;;;;;18.40;2.72;;;17.40;91.30;;;;;;5105161;28;20086;-68
2022/05/27 11:59:23;;;;;;;8.10;2.20;;;17.50;90.40;;;;;;5103716;28;20066;-71
2022/05/27 12:01:56;;;;;;;10.07;2.58;;;17.50;81.70;;;;;;5100207;28;20393;-71
2022/05/27 12:04:41;;;;;;;10.63;2.30;;;17.30;80.90;;;;;;5095921;28;20051;-68
2022/05/27 12:07:19;;;;;;;11.85;2.65;;;17.00;90.00;;;;;;5090159;28;20150;-71
2022/05/27 12:09:55;;;;;;;8.85;2.40;;;16.90;96.50;;;;;;5085701;28;20047;-71
2022/05/27 12:12:53;;;;;;;12.90;2.70;;;17.10;93.70;;;;;;5099989;28;20046;-70
2022/05/27 12:15:36;;;;;;;14.50;3.08;;;17.00;89.90;;;;;;5053643;28;20057;-68
2022/05/27 12:18:07;;;;;;;12.25;2.97;;;16.80;93.60;;;;;;5072013;28;20041;-70
2022/05/27 12:20:36;;;;;;;13.90;2.83;;;16.70;94.90;;;;;;5106730;28;20079;-70
2022/05/27 12:23:06;;;;;;;12.68;2.63;;;16.80;94.70;;;;;;5101176;28;20042;-68
2022/05/27 12:25:40;;;;;;;11.35;2.40;;;16.80;90.70;;;;;;5104953;28;20054;-69
2022/05/27 12:28:07;;;;;;;11.88;2.33;;;16.70;90.80;;;;;;5109163;28;20040;-72
2022/05/27 12:30:39;;;;;;;8.40;2.10;;;16.60;91.90;;;;;;5104515;28;20174;-68
2022/05/27 12:33:06;;;;;;;8.40;2.30;;;16.70;90.60;;;;;;5106838;28;20090;-67
2022/05/27 12:35:31;;;;;;;11.07;2.28;;;16.70;92.90;;;;;;5109447;27;20097;-66
2022/05/27 12:38:00;;;;;;;12.73;2.50;;;16.60;90.90;;;;;;5098895;28;20039;-71
2022/05/27 12:40:44;;;;;;;11.50;2.40;;;16.50;90.20;;;;;;5081063;28;20079;-71
2022/05/27 12:43:30;;;;;;;10.10;2.80;;;16.50;92.80;;;;;;5076998;28;20040;-73
2022/05/27 12:46:02;;;;;;;11.57;3.15;;;16.50;95.60;;;;;;5099663;28;20061;-72
2022/05/27 12:48:35;;;;;;;11.88;2.45;;;16.50;95.20;;;;;;5103608;28;20098;-72
2022/05/27 12:51:15;;;;;;;11.00;3.10;;;16.70;94.30;;;;;;5105564;28;20039;-71
2022/05/27 12:53:49;;;;;;;11.80;2.38;;;16.90;96.00;;;;;;5112160;28;20043;-72
2022/05/27 13:02:23;;;;;;;12.93;2.83;;;16.80;91.20;;;;;;5088623;28;20044;-72
2022/05/27 13:04:50;;;;;;;9.95;2.40;;;16.80;94.40;;;;;;5090877;28;20044;-71
2022/05/27 13:07:41;;;;;;;14.68;3.00;;;16.90;94.30;;;;;;5102879;28;20406;-73
2022/05/27 13:10:16;;;;;;;14.88;2.67;;;17.00;92.50;;;;;;5095103;28;20117;-74
2022/05/27 13:12:45;;;;;;;16.35;3.00;;;16.90;91.10;;;;;;5089736;28;20100;-73
2022/05/27 13:15:41;;;;;;;12.55;2.65;;;16.80;93.90;;;;;;5111351;28;20069;-73
2022/05/27 13:18:26;;;;;;;13.00;2.60;;;16.70;94.10;;;;;;5107031;28;20039;-73
2022/05/27 13:21:12;;;;;;;9.95;2.65;;;16.80;95.10;;;;;;5101385;28;20527;-70
2022/05/27 13:24:02;;;;;;;13.60;2.58;;;16.80;94.80;;;;;;5086449;28;20055;-70
2022/05/27 13:26:34;;;;;;;12.65;3.15;;;16.90;96.00;;;;;;5089688;28;20074;-70
2022/05/27 13:29:00;;;;;;;19.15;2.72;;;16.80;94.90;;;;;;5088109;28;20071;-70
2022/05/27 13:31:41;;;;;;;15.63;3.03;;;16.70;93.70;;;;;;5088513;28;20040;-70
2022/05/27 13:34:14;;;;;;;18.23;3.20;;;16.60;93.60;;;;;;5098333;28;20089;-69
2022/05/27 13:37:08;;;;;;;15.15;3.15;;;16.40;94.50;;;;;;5104964;28;20072;-69
2022/05/27 13:39:54;;;;;;;14.88;3.03;;;16.30;93.50;;;;;;5038477;28;20904;-70
2022/05/27 13:42:29;;;;;;;10.07;2.28;;;16.20;96.40;;;;;;5076877;28;20082;-69
2022/05/27 13:44:59;;;;;;;12.55;2.40;;;16.00;94.60;;;;;;5100065;28;20134;-69
2022/05/27 13:47:27;;;;;;;12.10;2.40;;;15.90;97.00;;;;;;5079175;28;20075;-69
2022/05/27 13:49:53;;;;;;;11.98;2.47;;;16.00;98.60;;;;;;5103735;28;20043;-70
2022/05/27 13:52:33;;;;;;;15.30;3.60;;;16.20;98.30;;;;;;5089989;28;20071;-69
2022/05/27 13:55:09;;;;;;;12.60;2.65;;;16.60;95.40;;;;;;5091388;28;20040;-71
2022/05/27 13:57:36;;;;;;;14.85;2.30;;;16.70;94.20;;;;;;5090619;28;20456;-71